createdAt,value
2019-01-20T00:06:50.295Z,97888.16
2019-01-20T00:13:17.371Z,97874.63
2019-01-20T00:19:41.173Z,97875.40
2019-01-20T00:26:22.344Z,97872.72
2019-01-20T00:32:49.173Z,97871.44
2019-01-20T00:39:14.991Z,97869.80
2019-01-20T00:45:40.806Z,97862.97
2019-01-20T00:52:17.742Z,97863.25
2019-01-20T00:58:43.309Z,97867.48
2019-01-20T01:08:47.476Z,97873.66
2019-01-20T01:15:14.146Z,97882.48
2019-01-20T01:21:53.112Z,97879.08
2019-01-20T01:28:23.868Z,97883.72
2019-01-20T01:34:50.009Z,97875.91
2019-01-20T01:41:28.965Z,97882.47
2019-01-20T01:47:54.781Z,97882.84
2019-01-20T01:54:20.376Z,97881.48
2019-01-20T02:00:46.227Z,97878.45
2019-01-20T02:10:13.951Z,97875.72
2019-01-20T02:16:54.002Z,97874.91
2019-01-20T02:23:20.793Z,97878.41
2019-01-20T02:29:11.306Z,97885.97
2019-01-20T02:35:39.730Z,97888.55
2019-01-20T02:42:19.911Z,97891.56
2019-01-20T02:48:48.959Z,97884.31
2019-01-20T02:55:16.800Z,97881.27
2019-01-20T03:01:55.751Z,97883.55
2019-01-20T03:12:10.724Z,97883.41
2019-01-20T03:18:37.670Z,97884.23
2019-01-20T03:25:03.236Z,97874.56
2019-01-20T03:30:54.972Z,97882.30
2019-01-20T03:37:33.919Z,97883.78
2019-01-20T03:43:59.740Z,97879.78
2019-01-20T03:50:27.384Z,97878.03
2019-01-20T03:56:54.048Z,97887.72
2019-01-20T04:03:33.003Z,97877.88
2019-01-20T04:13:33.085Z,97873.63
2019-01-20T04:20:03.028Z,97869.67
2019-01-20T04:26:33.797Z,97867.33
2019-01-20T04:33:10.699Z,97859.02
2019-01-20T04:39:38.600Z,97861.08
2019-01-20T04:46:05.264Z,97854.28
2019-01-20T04:52:44.263Z,97856.42
2019-01-20T04:59:08.382Z,97853.57
2019-01-20T05:05:34.215Z,97847.59
2019-01-20T05:15:40.218Z,97852.44
2019-01-20T05:22:05.020Z,97849.64
2019-01-20T05:28:45.991Z,97854.53
2019-01-20T05:35:13.627Z,97853.05
2019-01-20T05:41:40.289Z,97848.34
2019-01-20T05:48:19.616Z,97846.16
2019-01-20T05:54:45.433Z,97850.14
2019-01-20T06:01:08.895Z,97846.09
2019-01-20T06:07:37.075Z,97856.83
2019-01-20T06:17:11.764Z,97865.44
2019-01-20T06:23:48.695Z,97873.38
2019-01-20T06:29:38.154Z,97885.15
2019-01-20T06:36:03.979Z,97891.38
2019-01-20T06:42:27.429Z,97896.89
2019-01-20T06:49:13.793Z,97897.37
2019-01-20T06:55:45.674Z,97903.36
2019-01-20T07:02:13.516Z,97909.33
2019-01-20T07:08:50.443Z,97919.13
2019-01-20T07:19:04.526Z,97930.41
2019-01-20T07:25:28.321Z,97938.14
2019-01-20T07:31:18.576Z,97939.23
2019-01-20T07:37:45.624Z,97949.13
2019-01-20T07:44:24.569Z,97947.66
2019-01-20T07:50:52.408Z,97955.61
2019-01-20T07:57:24.097Z,97970.05
2019-01-20T08:04:01.004Z,97975.77
2019-01-20T08:10:32.103Z,97985.57
2019-01-20T08:20:37.080Z,97991.81
2019-01-20T08:27:02.903Z,97999.64
2019-01-20T08:32:52.363Z,98004.45
2019-01-20T08:39:31.315Z,98005.97
2019-01-20T08:46:20.162Z,98007.39
2019-01-20T08:52:50.104Z,98018.02
2019-01-20T08:59:18.011Z,98023.16
2019-01-20T09:05:56.001Z,98024.98
2019-01-20T09:11:58.602Z,98037.53
2019-01-20T09:22:13.470Z,98038.44
2019-01-20T09:28:39.316Z,98048.55
2019-01-20T09:35:06.339Z,98048.27
2019-01-20T09:41:29.794Z,98058.77
2019-01-20T09:47:55.958Z,98062.48
2019-01-20T09:54:21.782Z,98066.84
2019-01-20T10:00:49.398Z,98067.75
2019-01-20T10:06:43.120Z,98073.94
2019-01-20T10:13:13.648Z,98080.92
2019-01-20T10:23:31.100Z,98084.33
2019-01-20T10:30:13.084Z,98081.63
2019-01-20T10:36:52.030Z,98083.97
2019-01-20T10:43:35.069Z,98098.29
2019-01-20T10:50:13.971Z,98093.00
2019-01-20T10:56:42.428Z,98092.69
2019-01-20T11:03:09.510Z,98088.86
2019-01-20T11:09:41.530Z,98099.78
2019-01-20T11:16:14.568Z,98094.66
2019-01-20T11:26:04.259Z,98100.63
2019-01-20T11:32:44.221Z,98097.30
2019-01-20T11:39:23.171Z,98094.52
2019-01-20T11:46:02.124Z,98097.20
2019-01-20T11:52:41.068Z,98097.22
2019-01-20T11:59:18.001Z,98093.29
2019-01-20T12:05:56.945Z,98096.08
2019-01-20T12:12:33.879Z,98096.31
2019-01-20T12:19:12.848Z,98099.70
2019-01-20T12:28:49.541Z,98091.64
2019-01-20T12:35:17.379Z,98083.99
2019-01-20T12:41:42.191Z,98083.45
2019-01-20T12:48:20.134Z,98087.63
2019-01-20T12:54:59.089Z,98086.38
2019-01-20T13:01:42.745Z,98085.13
2019-01-20T13:08:01.832Z,98098.52
2019-01-20T13:14:41.420Z,98093.88
2019-01-20T13:18:25.008Z,98092.02
2019-01-20T13:24:39.750Z,98096.77
2019-01-20T13:31:17.653Z,98096.55
2019-01-20T13:37:42.462Z,98101.48
2019-01-20T13:44:08.290Z,98107.08
2019-01-20T13:50:31.848Z,98107.47
2019-01-20T13:56:57.694Z,98114.80
2019-01-20T14:03:21.500Z,98113.88
2019-01-20T14:09:17.868Z,98115.39
2019-01-20T14:15:46.081Z,98117.17
2019-01-20T14:25:52.075Z,98122.40
2019-01-20T14:32:18.903Z,98117.27
2019-01-20T14:38:46.741Z,98117.86
2019-01-20T14:45:32.462Z,98122.27
2019-01-20T14:52:11.711Z,98124.25
2019-01-20T14:58:39.557Z,98132.27
2019-01-20T15:05:14.286Z,98129.60
2019-01-20T15:11:39.208Z,98131.80
2019-01-20T15:18:08.751Z,98136.11
2019-01-20T15:28:32.986Z,98144.72
2019-01-20T15:35:05.197Z,98146.42
2019-01-20T15:41:32.022Z,98152.80
2019-01-20T15:47:59.566Z,98155.92
2019-01-20T15:54:27.446Z,98169.63
2019-01-20T16:00:23.000Z,98181.09
2019-01-20T16:06:48.834Z,98183.00
2019-01-20T16:13:15.872Z,98191.80
2019-01-20T16:19:41.690Z,98206.10
2019-01-20T16:29:46.682Z,98223.06
2019-01-20T16:35:50.077Z,98236.12
2019-01-20T16:42:17.108Z,98233.67
2019-01-20T16:48:42.933Z,98239.87
2019-01-20T16:55:08.752Z,98246.06
2019-01-20T17:01:34.569Z,98260.09
2019-01-20T17:08:02.192Z,98262.60
2019-01-20T17:14:28.863Z,98274.89
2019-01-20T17:20:58.094Z,98275.00
2019-01-20T17:31:14.921Z,98292.30
2019-01-20T17:37:08.347Z,98300.58
2019-01-20T17:43:38.563Z,98308.63
2019-01-20T17:50:09.436Z,98304.98
2019-01-20T17:56:37.270Z,98310.12
2019-01-20T18:03:04.857Z,98323.81
2019-01-20T18:09:32.760Z,98327.02
2019-01-20T18:15:59.782Z,98335.32
2019-01-20T18:22:25.600Z,98347.91
2019-01-20T18:32:26.551Z,98349.17
2019-01-20T18:38:32.173Z,98346.28
2019-01-20T18:45:15.820Z,98364.14
2019-01-20T18:51:55.123Z,98375.06
2019-01-20T18:58:28.000Z,98379.91
2019-01-20T19:04:55.486Z,98380.73
2019-01-20T19:11:23.697Z,98387.16
2019-01-20T19:17:49.514Z,98389.16
2019-01-20T19:24:15.331Z,98392.80
2019-01-20T19:33:34.875Z,98396.77
2019-01-20T19:40:13.826Z,98396.05
2019-01-20T19:46:52.703Z,98404.30
2019-01-20T19:53:18.375Z,98396.27
2019-01-20T19:59:54.510Z,98413.92
2019-01-20T20:06:21.143Z,98415.83
2019-01-20T20:12:49.849Z,98422.75
2019-01-20T20:19:20.054Z,98427.30
2019-01-20T20:25:45.869Z,98432.56
2019-01-20T20:31:39.372Z,98445.36
2019-01-20T20:38:04.995Z,98451.48
2019-01-20T20:44:28.790Z,98454.16
2019-01-20T20:50:52.797Z,98465.28
2019-01-20T20:57:16.395Z,98468.69
2019-01-20T21:03:43.066Z,98477.47
2019-01-20T21:10:13.280Z,98480.20
2019-01-20T21:16:02.740Z,98484.23
2019-01-20T21:22:28.560Z,98490.96
2019-01-20T21:28:55.390Z,98496.31
2019-01-20T21:38:45.991Z,98494.31
2019-01-20T21:45:24.946Z,98501.73
2019-01-20T21:52:02.118Z,98509.31
2019-01-20T21:58:42.862Z,98515.69
2019-01-20T22:05:19.767Z,98523.03
2019-01-20T22:11:52.580Z,98525.96
2019-01-20T22:18:20.504Z,98535.77
2019-01-20T22:24:46.328Z,98540.94
2019-01-20T22:31:12.185Z,98554.36
2019-01-20T22:41:28.497Z,98563.94
2019-01-20T22:47:56.127Z,98568.88
2019-01-20T22:54:24.170Z,98569.25
2019-01-20T23:01:23.321Z,98571.25
2019-01-20T23:07:50.947Z,98582.56
2019-01-20T23:14:04.861Z,98575.37
2019-01-20T23:20:32.700Z,98586.83
2019-01-20T23:26:58.520Z,98588.78
2019-01-20T23:33:26.980Z,98583.39
2019-01-20T23:43:31.144Z,98585.31
2019-01-20T23:50:10.921Z,98590.26
2019-01-20T23:56:49.880Z,98593.09
